sensor_id;sensor_type;location;lat;lon;timestamp;P1;durP1;ratioP1;P2;durP2;ratioP2
1651;SDS011;823;49.028;8.454;2023-02-22T00:02:53;14.27;;;5.77;;
1651;SDS011;823;49.028;8.454;2023-02-22T00:07:58;12.83;;;5.63;;
1651;SDS011;823;49.028;8.454;2023-02-22T00:12:59;8.53;;;4.90;;
1651;SDS011;823;49.028;8.454;2023-02-22T00:18:00;8.32;;;5.03;;
1651;SDS011;823;49.028;8.454;2023-02-22T00:23:02;24.80;;;6.00;;
1651;SDS011;823;49.028;8.454;2023-02-22T00:28:06;17.77;;;5.93;;
1651;SDS011;823;49.028;8.454;2023-02-22T00:33:06;9.60;;;4.87;;
1651;SDS011;823;49.028;8.454;2023-02-22T00:38:06;15.13;;;4.55;;
1651;SDS011;823;49.028;8.454;2023-02-22T00:43:07;12.73;;;4.70;;
1651;SDS011;823;49.028;8.454;2023-02-22T00:48:08;14.43;;;5.50;;
1651;SDS011;823;49.028;8.454;2023-02-22T00:53:09;10.10;;;4.83;;
1651;SDS011;823;49.028;8.454;2023-02-22T00:58:10;7.83;;;4.60;;
1651;SDS011;823;49.028;8.454;2023-02-22T01:03:12;11.50;;;5.77;;
1651;SDS011;823;49.028;8.454;2023-02-22T01:08:14;11.83;;;4.33;;
1651;SDS011;823;49.028;8.454;2023-02-22T01:13:15;7.07;;;4.20;;
1651;SDS011;823;49.028;8.454;2023-02-22T01:18:18;10.23;;;4.17;;
1651;SDS011;823;49.028;8.454;2023-02-22T01:23:20;9.43;;;4.17;;
1651;SDS011;823;49.028;8.454;2023-02-22T01:28:21;14.75;;;5.50;;
1651;SDS011;823;49.028;8.454;2023-02-22T01:33:21;10.10;;;4.30;;
1651;SDS011;823;49.028;8.454;2023-02-22T01:38:21;7.78;;;4.35;;
1651;SDS011;823;49.028;8.454;2023-02-22T01:43:26;6.60;;;3.97;;
1651;SDS011;823;49.028;8.454;2023-02-22T01:53:42;9.17;;;4.83;;
1651;SDS011;823;49.028;8.454;2023-02-22T01:58:48;7.80;;;4.07;;
1651;SDS011;823;49.028;8.454;2023-02-22T02:03:54;6.23;;;3.67;;
1651;SDS011;823;49.028;8.454;2023-02-22T02:14:24;8.80;;;4.00;;
1651;SDS011;823;49.028;8.454;2023-02-22T02:24:54;11.40;;;4.60;;
1651;SDS011;823;49.028;8.454;2023-02-22T02:30:36;16.97;;;4.93;;
1651;SDS011;823;49.028;8.454;2023-02-22T02:35:42;8.33;;;4.87;;
1651;SDS011;823;49.028;8.454;2023-02-22T02:40:51;7.70;;;3.83;;
1651;SDS011;823;49.028;8.454;2023-02-22T02:46:05;7.83;;;4.27;;
1651;SDS011;823;49.028;8.454;2023-02-22T02:51:11;7.37;;;3.90;;
1651;SDS011;823;49.028;8.454;2023-02-22T02:56:13;7.97;;;3.93;;
1651;SDS011;823;49.028;8.454;2023-02-22T03:01:16;8.93;;;4.90;;
1651;SDS011;823;49.028;8.454;2023-02-22T03:06:29;8.83;;;4.77;;
1651;SDS011;823;49.028;8.454;2023-02-22T03:11:56;13.10;;;4.30;;
1651;SDS011;823;49.028;8.454;2023-02-22T03:17:25;9.50;;;4.70;;
1651;SDS011;823;49.028;8.454;2023-02-22T03:22:47;8.73;;;4.30;;
1651;SDS011;823;49.028;8.454;2023-02-22T03:27:54;10.67;;;4.50;;
1651;SDS011;823;49.028;8.454;2023-02-22T03:33:03;10.07;;;4.70;;
1651;SDS011;823;49.028;8.454;2023-02-22T03:38:08;10.43;;;5.30;;
1651;SDS011;823;49.028;8.454;2023-02-22T03:43:15;8.27;;;4.20;;
1651;SDS011;823;49.028;8.454;2023-02-22T03:48:26;12.70;;;5.10;;
1651;SDS011;823;49.028;8.454;2023-02-22T03:53:30;11.57;;;5.10;;
1651;SDS011;823;49.028;8.454;2023-02-22T03:58:33;12.60;;;5.10;;
1651;SDS011;823;49.028;8.454;2023-02-22T04:03:35;12.00;;;5.17;;
1651;SDS011;823;49.028;8.454;2023-02-22T04:08:35;11.53;;;5.30;;
1651;SDS011;823;49.028;8.454;2023-02-22T04:13:36;8.70;;;4.77;;
1651;SDS011;823;49.028;8.454;2023-02-22T04:18:36;10.43;;;4.87;;
1651;SDS011;823;49.028;8.454;2023-02-22T04:23:37;9.38;;;4.97;;
1651;SDS011;823;49.028;8.454;2023-02-22T04:28:37;11.68;;;5.53;;
1651;SDS011;823;49.028;8.454;2023-02-22T04:33:37;11.97;;;4.53;;
1651;SDS011;823;49.028;8.454;2023-02-22T04:38:38;11.13;;;5.25;;
1651;SDS011;823;49.028;8.454;2023-02-22T04:43:38;20.03;;;7.33;;
1651;SDS011;823;49.028;8.454;2023-02-22T04:48:38;9.40;;;5.00;;
1651;SDS011;823;49.028;8.454;2023-02-22T04:53:39;7.95;;;4.53;;
1651;SDS011;823;49.028;8.454;2023-02-22T04:58:39;10.13;;;4.60;;
1651;SDS011;823;49.028;8.454;2023-02-22T05:03:39;15.10;;;5.25;;
1651;SDS011;823;49.028;8.454;2023-02-22T05:08:40;12.35;;;4.93;;
1651;SDS011;823;49.028;8.454;2023-02-22T05:13:40;8.83;;;4.83;;
1651;SDS011;823;49.028;8.454;2023-02-22T05:18:41;15.00;;;4.87;;
1651;SDS011;823;49.028;8.454;2023-02-22T05:23:41;13.20;;;5.10;;
1651;SDS011;823;49.028;8.454;2023-02-22T05:28:42;12.60;;;5.80;;
1651;SDS011;823;49.028;8.454;2023-02-22T05:33:42;13.50;;;5.05;;
1651;SDS011;823;49.028;8.454;2023-02-22T05:38:42;11.13;;;5.22;;
1651;SDS011;823;49.028;8.454;2023-02-22T05:43:43;11.27;;;5.67;;
1651;SDS011;823;49.028;8.454;2023-02-22T05:48:44;7.97;;;4.40;;
1651;SDS011;823;49.028;8.454;2023-02-22T05:53:44;9.68;;;5.00;;
1651;SDS011;823;49.028;8.454;2023-02-22T05:58:44;9.65;;;4.50;;
1651;SDS011;823;49.028;8.454;2023-02-22T06:03:45;12.57;;;6.05;;
1651;SDS011;823;49.028;8.454;2023-02-22T06:08:47;14.03;;;5.90;;
1651;SDS011;823;49.028;8.454;2023-02-22T06:13:48;14.40;;;5.03;;
1651;SDS011;823;49.028;8.454;2023-02-22T06:18:49;9.20;;;4.97;;
1651;SDS011;823;49.028;8.454;2023-02-22T06:23:50;8.53;;;4.83;;
1651;SDS011;823;49.028;8.454;2023-02-22T06:28:50;8.60;;;4.88;;
1651;SDS011;823;49.028;8.454;2023-02-22T06:33:50;11.67;;;5.50;;
1651;SDS011;823;49.028;8.454;2023-02-22T06:38:51;10.50;;;4.75;;
1651;SDS011;823;49.028;8.454;2023-02-22T06:43:51;14.20;;;7.55;;
1651;SDS011;823;49.028;8.454;2023-02-22T06:48:51;13.32;;;6.00;;
1651;SDS011;823;49.028;8.454;2023-02-22T06:53:52;9.07;;;5.60;;
1651;SDS011;823;49.028;8.454;2023-02-22T06:58:52;8.20;;;5.47;;
1651;SDS011;823;49.028;8.454;2023-02-22T07:03:53;9.63;;;4.97;;
1651;SDS011;823;49.028;8.454;2023-02-22T07:08:53;9.37;;;4.60;;
1651;SDS011;823;49.028;8.454;2023-02-22T07:13:53;8.93;;;5.13;;
1651;SDS011;823;49.028;8.454;2023-02-22T07:18:54;16.83;;;5.90;;
1651;SDS011;823;49.028;8.454;2023-02-22T07:23:55;10.60;;;5.38;;
1651;SDS011;823;49.028;8.454;2023-02-22T07:28:56;8.53;;;4.50;;
1651;SDS011;823;49.028;8.454;2023-02-22T07:33:56;10.88;;;5.00;;
1651;SDS011;823;49.028;8.454;2023-02-22T07:38:56;13.50;;;6.18;;
1651;SDS011;823;49.028;8.454;2023-02-22T07:43:57;21.25;;;8.38;;
1651;SDS011;823;49.028;8.454;2023-02-22T07:48:57;14.73;;;6.35;;
1651;SDS011;823;49.028;8.454;2023-02-22T07:53:57;11.13;;;5.20;;
1651;SDS011;823;49.028;8.454;2023-02-22T07:58:58;11.60;;;5.50;;
1651;SDS011;823;49.028;8.454;2023-02-22T08:04:00;11.37;;;5.03;;
1651;SDS011;823;49.028;8.454;2023-02-22T08:09:00;14.43;;;5.00;;
1651;SDS011;823;49.028;8.454;2023-02-22T08:14:00;11.70;;;5.78;;
1651;SDS011;823;49.028;8.454;2023-02-22T08:19:01;9.57;;;5.30;;
1651;SDS011;823;49.028;8.454;2023-02-22T08:24:01;12.20;;;6.28;;
1651;SDS011;823;49.028;8.454;2023-02-22T08:29:01;10.67;;;5.50;;
1651;SDS011;823;49.028;8.454;2023-02-22T08:34:02;12.70;;;5.85;;
1651;SDS011;823;49.028;8.454;2023-02-22T08:39:02;21.07;;;6.07;;
1651;SDS011;823;49.028;8.454;2023-02-22T08:44:02;13.60;;;6.50;;
1651;SDS011;823;49.028;8.454;2023-02-22T08:49:03;19.48;;;6.05;;
1651;SDS011;823;49.028;8.454;2023-02-22T08:54:06;15.63;;;6.63;;
1651;SDS011;823;49.028;8.454;2023-02-22T08:59:06;14.95;;;6.80;;
1651;SDS011;823;49.028;8.454;2023-02-22T09:04:06;10.85;;;6.35;;
1651;SDS011;823;49.028;8.454;2023-02-22T09:09:07;13.53;;;6.40;;
1651;SDS011;823;49.028;8.454;2023-02-22T09:14:08;14.10;;;6.67;;
1651;SDS011;823;49.028;8.454;2023-02-22T09:19:09;17.15;;;6.38;;
1651;SDS011;823;49.028;8.454;2023-02-22T09:24:09;18.13;;;6.73;;
1651;SDS011;823;49.028;8.454;2023-02-22T09:29:09;17.70;;;5.73;;
1651;SDS011;823;49.028;8.454;2023-02-22T09:34:10;10.75;;;6.82;;
1651;SDS011;823;49.028;8.454;2023-02-22T09:39:14;10.47;;;5.77;;
1651;SDS011;823;49.028;8.454;2023-02-22T09:44:21;22.07;;;7.10;;
1651;SDS011;823;49.028;8.454;2023-02-22T09:49:33;14.07;;;5.80;;
1651;SDS011;823;49.028;8.454;2023-02-22T10:00:06;13.50;;;5.20;;
1651;SDS011;823;49.028;8.454;2023-02-22T10:05:25;14.27;;;4.60;;
1651;SDS011;823;49.028;8.454;2023-02-22T10:10:33;8.43;;;4.50;;
1651;SDS011;823;49.028;8.454;2023-02-22T10:20:53;10.43;;;5.03;;
1651;SDS011;823;49.028;8.454;2023-02-22T10:25:55;9.07;;;5.63;;
1651;SDS011;823;49.028;8.454;2023-02-22T10:31:08;12.13;;;5.90;;
1651;SDS011;823;49.028;8.454;2023-02-22T10:36:19;14.37;;;5.93;;
1651;SDS011;823;49.028;8.454;2023-02-22T10:41:27;12.70;;;6.10;;
1651;SDS011;823;49.028;8.454;2023-02-22T10:46:31;14.50;;;6.37;;
1651;SDS011;823;49.028;8.454;2023-02-22T10:51:33;11.13;;;5.37;;
1651;SDS011;823;49.028;8.454;2023-02-22T10:56:34;10.07;;;6.23;;
1651;SDS011;823;49.028;8.454;2023-02-22T11:01:49;13.90;;;6.40;;
1651;SDS011;823;49.028;8.454;2023-02-22T11:07:05;13.87;;;6.97;;
1651;SDS011;823;49.028;8.454;2023-02-22T11:12:08;13.23;;;6.63;;
1651;SDS011;823;49.028;8.454;2023-02-22T11:17:17;16.30;;;7.40;;
1651;SDS011;823;49.028;8.454;2023-02-22T11:22:57;12.90;;;6.90;;
1651;SDS011;823;49.028;8.454;2023-02-22T11:27:54;16.00;;;7.50;;
1651;SDS011;823;49.028;8.454;2023-02-22T11:38:31;18.27;;;7.20;;
1651;SDS011;823;49.028;8.454;2023-02-22T11:43:25;14.43;;;7.10;;
1651;SDS011;823;49.028;8.454;2023-02-22T11:48:26;20.77;;;7.70;;
1651;SDS011;823;49.028;8.454;2023-02-22T12:09:49;18.83;;;7.73;;
1651;SDS011;823;49.028;8.454;2023-02-22T12:20:24;10.83;;;6.10;;
1651;SDS011;823;49.028;8.454;2023-02-22T12:25:52;13.10;;;7.17;;
1651;SDS011;823;49.028;8.454;2023-02-22T12:31:09;15.27;;;5.77;;
1651;SDS011;823;49.028;8.454;2023-02-22T12:36:21;14.50;;;6.57;;
1651;SDS011;823;49.028;8.454;2023-02-22T12:41:30;13.90;;;5.93;;
1651;SDS011;823;49.028;8.454;2023-02-22T12:46:58;18.60;;;6.13;;
1651;SDS011;823;49.028;8.454;2023-02-22T12:57:46;12.73;;;6.20;;
1651;SDS011;823;49.028;8.454;2023-02-22T13:02:52;22.40;;;7.70;;
1651;SDS011;823;49.028;8.454;2023-02-22T13:08:15;18.00;;;8.00;;
1651;SDS011;823;49.028;8.454;2023-02-22T13:13:35;16.87;;;7.70;;
1651;SDS011;823;49.028;8.454;2023-02-22T13:18:47;19.13;;;8.30;;
1651;SDS011;823;49.028;8.454;2023-02-22T13:24:00;18.70;;;8.73;;
1651;SDS011;823;49.028;8.454;2023-02-22T13:29:16;22.93;;;8.60;;
1651;SDS011;823;49.028;8.454;2023-02-22T13:34:41;18.07;;;8.37;;
1651;SDS011;823;49.028;8.454;2023-02-22T13:40:15;18.37;;;7.97;;
1651;SDS011;823;49.028;8.454;2023-02-22T13:56:06;22.37;;;9.77;;
1651;SDS011;823;49.028;8.454;2023-02-22T14:01:07;16.33;;;8.60;;
1651;SDS011;823;49.028;8.454;2023-02-22T14:06:38;15.57;;;8.30;;
1651;SDS011;823;49.028;8.454;2023-02-22T14:11:46;17.30;;;8.60;;
1651;SDS011;823;49.028;8.454;2023-02-22T14:22:30;18.50;;;7.97;;
1651;SDS011;823;49.028;8.454;2023-02-22T14:27:39;22.23;;;8.47;;
1651;SDS011;823;49.028;8.454;2023-02-22T14:32:41;17.20;;;8.73;;
1651;SDS011;823;49.028;8.454;2023-02-22T14:37:41;22.10;;;9.75;;
1651;SDS011;823;49.028;8.454;2023-02-22T14:42:48;17.00;;;9.00;;
1651;SDS011;823;49.028;8.454;2023-02-22T14:58:24;22.40;;;10.27;;
1651;SDS011;823;49.028;8.454;2023-02-22T15:03:32;23.23;;;10.60;;
1651;SDS011;823;49.028;8.454;2023-02-22T15:08:36;22.97;;;10.27;;
1651;SDS011;823;49.028;8.454;2023-02-22T15:13:47;16.57;;;9.10;;
1651;SDS011;823;49.028;8.454;2023-02-22T15:18:57;24.70;;;9.27;;
1651;SDS011;823;49.028;8.454;2023-02-22T15:24:03;22.70;;;10.40;;
1651;SDS011;823;49.028;8.454;2023-02-22T15:29:08;27.93;;;9.60;;
1651;SDS011;823;49.028;8.454;2023-02-22T15:39:47;18.83;;;9.00;;
1651;SDS011;823;49.028;8.454;2023-02-22T15:44:42;19.47;;;8.70;;
1651;SDS011;823;49.028;8.454;2023-02-22T15:49:43;19.90;;;8.27;;
1651;SDS011;823;49.028;8.454;2023-02-22T15:54:44;30.50;;;9.77;;
1651;SDS011;823;49.028;8.454;2023-02-22T15:59:50;15.43;;;8.30;;
1651;SDS011;823;49.028;8.454;2023-02-22T16:04:56;19.13;;;8.57;;
1651;SDS011;823;49.028;8.454;2023-02-22T16:09:59;19.73;;;9.27;;
1651;SDS011;823;49.028;8.454;2023-02-22T16:15:13;19.30;;;8.60;;
1651;SDS011;823;49.028;8.454;2023-02-22T16:25:25;20.07;;;9.87;;
1651;SDS011;823;49.028;8.454;2023-02-22T16:30:35;23.07;;;9.80;;
1651;SDS011;823;49.028;8.454;2023-02-22T16:35:38;20.43;;;9.43;;
1651;SDS011;823;49.028;8.454;2023-02-22T16:40:40;19.70;;;9.00;;
1651;SDS011;823;49.028;8.454;2023-02-22T16:45:45;18.23;;;10.23;;
1651;SDS011;823;49.028;8.454;2023-02-22T16:50:46;21.03;;;10.10;;
1651;SDS011;823;49.028;8.454;2023-02-22T16:55:47;19.43;;;9.63;;
1651;SDS011;823;49.028;8.454;2023-02-22T17:00:49;26.50;;;10.83;;
1651;SDS011;823;49.028;8.454;2023-02-22T17:05:50;21.33;;;9.85;;
1651;SDS011;823;49.028;8.454;2023-02-22T17:10:50;33.20;;;11.47;;
1651;SDS011;823;49.028;8.454;2023-02-22T17:15:55;34.67;;;10.77;;
1651;SDS011;823;49.028;8.454;2023-02-22T17:20:56;18.90;;;10.80;;
1651;SDS011;823;49.028;8.454;2023-02-22T17:25:58;24.20;;;11.85;;
1651;SDS011;823;49.028;8.454;2023-02-22T17:31:01;24.70;;;12.20;;
1651;SDS011;823;49.028;8.454;2023-02-22T17:36:02;29.90;;;14.13;;
1651;SDS011;823;49.028;8.454;2023-02-22T17:41:03;31.83;;;14.47;;
1651;SDS011;823;49.028;8.454;2023-02-22T17:46:06;24.73;;;13.60;;
1651;SDS011;823;49.028;8.454;2023-02-22T17:51:07;30.50;;;11.60;;
1651;SDS011;823;49.028;8.454;2023-02-22T17:56:11;26.87;;;12.77;;
1651;SDS011;823;49.028;8.454;2023-02-22T18:01:20;32.43;;;12.43;;
1651;SDS011;823;49.028;8.454;2023-02-22T18:06:24;31.33;;;13.63;;
1651;SDS011;823;49.028;8.454;2023-02-22T18:11:27;30.50;;;15.00;;
1651;SDS011;823;49.028;8.454;2023-02-22T18:16:31;36.00;;;15.47;;
1651;SDS011;823;49.028;8.454;2023-02-22T18:21:31;33.13;;;13.77;;
1651;SDS011;823;49.028;8.454;2023-02-22T18:26:32;27.67;;;13.65;;
1651;SDS011;823;49.028;8.454;2023-02-22T18:31:32;31.73;;;15.60;;
1651;SDS011;823;49.028;8.454;2023-02-22T18:36:32;39.88;;;15.75;;
1651;SDS011;823;49.028;8.454;2023-02-22T18:41:33;29.38;;;13.50;;
1651;SDS011;823;49.028;8.454;2023-02-22T18:46:33;32.07;;;15.80;;
1651;SDS011;823;49.028;8.454;2023-02-22T18:51:33;30.08;;;16.27;;
1651;SDS011;823;49.028;8.454;2023-02-22T18:56:34;28.83;;;15.50;;
1651;SDS011;823;49.028;8.454;2023-02-22T19:01:35;39.33;;;17.60;;
1651;SDS011;823;49.028;8.454;2023-02-22T19:06:38;37.60;;;17.53;;
1651;SDS011;823;49.028;8.454;2023-02-22T19:11:38;43.97;;;17.30;;
1651;SDS011;823;49.028;8.454;2023-02-22T19:16:43;44.87;;;18.53;;
1651;SDS011;823;49.028;8.454;2023-02-22T19:21:45;36.33;;;16.30;;
1651;SDS011;823;49.028;8.454;2023-02-22T19:26:46;41.90;;;17.80;;
1651;SDS011;823;49.028;8.454;2023-02-22T19:31:50;34.80;;;16.20;;
1651;SDS011;823;49.028;8.454;2023-02-22T19:36:52;32.77;;;18.00;;
1651;SDS011;823;49.028;8.454;2023-02-22T19:41:53;39.70;;;18.20;;
1651;SDS011;823;49.028;8.454;2023-02-22T19:46:54;33.00;;;17.37;;
1651;SDS011;823;49.028;8.454;2023-02-22T19:51:54;41.00;;;18.50;;
1651;SDS011;823;49.028;8.454;2023-02-22T19:56:57;35.93;;;17.87;;
1651;SDS011;823;49.028;8.454;2023-02-22T20:01:57;46.73;;;18.70;;
1651;SDS011;823;49.028;8.454;2023-02-22T20:06:58;31.80;;;16.40;;
1651;SDS011;823;49.028;8.454;2023-02-22T20:11:58;35.40;;;16.17;;
1651;SDS011;823;49.028;8.454;2023-02-22T20:16:58;38.10;;;16.60;;
1651;SDS011;823;49.028;8.454;2023-02-22T20:21:59;44.27;;;17.53;;
1651;SDS011;823;49.028;8.454;2023-02-22T20:26:59;31.98;;;15.10;;
1651;SDS011;823;49.028;8.454;2023-02-22T20:32:00;33.97;;;17.30;;
1651;SDS011;823;49.028;8.454;2023-02-22T20:37:01;32.80;;;16.57;;
1651;SDS011;823;49.028;8.454;2023-02-22T20:42:03;35.73;;;15.80;;
1651;SDS011;823;49.028;8.454;2023-02-22T20:47:05;37.73;;;17.20;;
1651;SDS011;823;49.028;8.454;2023-02-22T20:52:06;41.30;;;16.80;;
1651;SDS011;823;49.028;8.454;2023-02-22T20:57:06;43.60;;;16.98;;
1651;SDS011;823;49.028;8.454;2023-02-22T21:02:07;36.77;;;16.50;;
1651;SDS011;823;49.028;8.454;2023-02-22T21:07:09;42.33;;;18.60;;
1651;SDS011;823;49.028;8.454;2023-02-22T21:12:10;39.23;;;16.90;;
1651;SDS011;823;49.028;8.454;2023-02-22T21:17:12;41.97;;;17.97;;
1651;SDS011;823;49.028;8.454;2023-02-22T21:22:12;36.60;;;16.45;;
1651;SDS011;823;49.028;8.454;2023-02-22T21:27:13;39.73;;;16.77;;
1651;SDS011;823;49.028;8.454;2023-02-22T21:32:15;38.50;;;17.43;;
1651;SDS011;823;49.028;8.454;2023-02-22T21:37:15;36.58;;;16.88;;
1651;SDS011;823;49.028;8.454;2023-02-22T21:42:17;35.70;;;18.00;;
1651;SDS011;823;49.028;8.454;2023-02-22T21:47:17;39.08;;;18.55;;
1651;SDS011;823;49.028;8.454;2023-02-22T21:52:17;45.77;;;19.30;;
1651;SDS011;823;49.028;8.454;2023-02-22T21:57:18;42.30;;;17.10;;
1651;SDS011;823;49.028;8.454;2023-02-22T22:02:18;52.88;;;21.08;;
1651;SDS011;823;49.028;8.454;2023-02-22T22:07:18;39.15;;;18.27;;
1651;SDS011;823;49.028;8.454;2023-02-22T22:12:18;48.63;;;19.17;;
1651;SDS011;823;49.028;8.454;2023-02-22T22:17:21;44.90;;;18.70;;
1651;SDS011;823;49.028;8.454;2023-02-22T22:22:21;44.42;;;18.40;;
1651;SDS011;823;49.028;8.454;2023-02-22T22:27:22;40.10;;;16.73;;
1651;SDS011;823;49.028;8.454;2023-02-22T22:32:25;47.95;;;19.83;;
1651;SDS011;823;49.028;8.454;2023-02-22T22:37:25;44.40;;;18.67;;
1651;SDS011;823;49.028;8.454;2023-02-22T22:42:29;36.80;;;17.77;;
1651;SDS011;823;49.028;8.454;2023-02-22T22:47:29;54.45;;;18.88;;
1651;SDS011;823;49.028;8.454;2023-02-22T22:52:29;40.30;;;17.23;;
1651;SDS011;823;49.028;8.454;2023-02-22T22:57:34;47.90;;;19.00;;
1651;SDS011;823;49.028;8.454;2023-02-22T23:02:34;41.40;;;18.60;;
1651;SDS011;823;49.028;8.454;2023-02-22T23:07:36;42.17;;;16.97;;
1651;SDS011;823;49.028;8.454;2023-02-22T23:12:37;40.92;;;17.10;;
1651;SDS011;823;49.028;8.454;2023-02-22T23:17:38;54.43;;;19.30;;
1651;SDS011;823;49.028;8.454;2023-02-22T23:22:41;46.87;;;18.37;;
1651;SDS011;823;49.028;8.454;2023-02-22T23:27:46;49.47;;;17.67;;
1651;SDS011;823;49.028;8.454;2023-02-22T23:32:47;40.97;;;17.57;;
1651;SDS011;823;49.028;8.454;2023-02-22T23:37:50;45.90;;;17.30;;
1651;SDS011;823;49.028;8.454;2023-02-22T23:42:52;40.07;;;18.33;;
1651;SDS011;823;49.028;8.454;2023-02-22T23:47:54;47.00;;;18.47;;
1651;SDS011;823;49.028;8.454;2023-02-22T23:52:56;48.53;;;18.53;;
1651;SDS011;823;49.028;8.454;2023-02-22T23:57:58;52.63;;;21.57;;
